Terminal Aerodrome Forecast
Issued by NWS Quad Cities IA IL

Home | Current Version | Previous Version | Text Only | Print | Product List | Glossary On
Versions: 1 2 3 4 5 6 7 8 9 10 11 12 13 14 15 16 17 18 19 20 21 22 23 24 25 26 27 28
489
FTUS43 KDVN 012000 AAB
TAFDBQ
TAF AMD
KDBQ 012000Z 0120/0218 03008KT P6SM VCSH SCT015 OVC025
     FM012300 03009KT P6SM VCSH BKN015 OVC030
     FM020200 01006KT P6SM OVC015
     FM020600 35004KT 4SM BR BKN008
     FM021000 34003KT 3SM BR OVC005
     FM021500 01006KT 5SM BR OVC010=

USA.gov is the U.S. government's official web portal to all federal, state and local government web resources and services.